D55

Robertson Field Airport

Langdon, North Dakota, USA
METAR KD55 211755Z AUTO 33005KT 10SM CLR 30/13 A2998 RMK AO2
Observed Flight Rules
Jun-21 @ 17:55 UTC (9 minutes ago) Visual Flight Rules
Wind Visibility Clouds
330° at 5 knots 10 miles
  • Clear skies
Temperatures Readings
Current 30°C / 86°F
Dewpoint 13°C / 55°F
Humidity 35%
Altimeter 29.98" Hg
Pressure 1015 hPa
Elevation 491
METAR KD55 211755Z AUTO 33005KT 10SM CLR 30/13 A2998 RMK AO2
Observed Flight Rules
Jun-21 @ 17:55 UTC
(9 minutes ago)
VFR
Wind Visibility
330° at 5 knots 10 miles
Clouds
  • Clear skies
Temperature Dewpoint
30°C / 86°F 13°C / 55°F
Humidity Altimeter Pressure
35% 29.98" Hg 1015 hPa